Time;durP1;ratioP1;P1;durP2;ratioP2;P2;SDS_P1;SDS_P2;PMS_P1;PMS_P2;Temp;Humidity;BMP_temperature;BMP_pressure;BME280_temperature;BME280_humidity;BME280_pressure;Samples;Min_cycle;Max_cycle;Signal;HPM_P1;HPM_P2
2022/05/08 00:02:16;;;;;;;;;21.50;20.00;;;;;;;;5058036;28;45441;-74
2022/05/08 00:04:41;;;;;;;;;22.75;19.50;;;;;;;;5056351;28;46589;-74
2022/05/08 00:07:06;;;;;;;;;17.00;15.67;;;;;;;;5058418;28;45272;-74
2022/05/08 00:09:31;;;;;;;;;17.50;16.50;;;;;;;;5057491;28;45209;-74
2022/05/08 00:11:57;;;;;;;;;17.25;16.50;;;;;;;;5059977;28;45384;-74
2022/05/08 00:14:23;;;;;;;;;17.75;17.25;;;;;;;;5057291;28;45334;-74
2022/05/08 00:16:48;;;;;;;;;18.67;17.00;;;;;;;;5059395;28;45213;-74
2022/05/08 00:19:13;;;;;;;;;19.25;18.25;;;;;;;;5057525;28;45351;-73
2022/05/08 00:21:42;;;;;;;;;19.75;17.75;;;;;;;;5058833;28;45263;-74
2022/05/08 00:24:07;;;;;;;;;22.25;19.25;;;;;;;;5056994;28;45307;-74
2022/05/08 00:26:32;;;;;;;;;19.75;18.75;;;;;;;;5057690;28;45494;-74
2022/05/08 00:28:58;;;;;;;;;16.00;15.75;;;;;;;;5057515;28;45283;-74
2022/05/08 00:31:24;;;;;;;;;18.75;17.25;;;;;;;;5059239;28;45347;-74
2022/05/08 00:33:50;;;;;;;;;16.00;16.00;;;;;;;;5080734;27;47259;-74
2022/05/08 00:36:15;;;;;;;;;19.00;15.25;;;;;;;;5057848;28;45566;-74
2022/05/08 00:38:40;;;;;;;;;21.25;17.75;;;;;;;;5056790;28;45774;-74
2022/05/08 00:41:06;;;;;;;;;18.25;17.00;;;;;;;;5058990;28;45754;-74
2022/05/08 00:43:35;;;;;;;;;20.00;20.00;;;;;;;;5057382;28;45436;-74
2022/05/08 00:46:01;;;;;;;;;22.00;17.33;;;;;;;;5058651;28;45577;-74
2022/05/08 00:48:26;;;;;;;;;21.25;16.25;;;;;;;;5057971;28;45338;-71
2022/05/08 00:50:52;;;;;;;;;21.00;16.50;;;;;;;;5058739;28;45404;-72
2022/05/08 00:53:17;;;;;;;;;20.00;14.50;;;;;;;;5058245;28;45672;-72
2022/05/08 00:55:43;;;;;;;;;20.00;18.25;;;;;;;;5056144;28;45394;-72
2022/05/08 00:58:08;;;;;;;;;18.00;15.00;;;;;;;;5077843;27;45705;-72
2022/05/08 01:00:34;;;;;;;;;14.00;13.67;;;;;;;;5056726;28;45507;-73
2022/05/08 01:02:59;;;;;;;;;16.75;16.00;;;;;;;;5058878;28;45169;-74
2022/05/08 01:05:24;;;;;;;;;20.75;15.75;;;;;;;;5055269;28;45447;-74
2022/05/08 01:07:50;;;;;;;;;17.25;15.75;;;;;;;;5056246;28;45213;-73
2022/05/08 01:10:16;;;;;;;;;20.75;18.50;;;;;;;;5056715;28;45374;-73
2022/05/08 01:12:44;;;;;;;;;20.25;19.00;;;;;;;;5058721;28;45224;-73
2022/05/08 01:15:14;;;;;;;;;16.50;15.25;;;;;;;;5079781;27;45399;-74
2022/05/08 01:17:39;;;;;;;;;23.00;18.75;;;;;;;;5046531;28;45309;-74
2022/05/08 01:20:05;;;;;;;;;21.75;18.50;;;;;;;;5052798;28;45673;-73
2022/05/08 01:22:31;;;;;;;;;24.50;19.00;;;;;;;;5058473;28;46622;-73
2022/05/08 01:24:57;;;;;;;;;22.00;18.00;;;;;;;;5056517;28;45379;-73
2022/05/08 01:27:23;;;;;;;;;20.00;18.00;;;;;;;;5058582;28;45483;-73
2022/05/08 01:29:48;;;;;;;;;18.25;18.00;;;;;;;;5056398;28;45972;-74
2022/05/08 01:32:13;;;;;;;;;17.25;17.25;;;;;;;;5058456;28;45512;-73
2022/05/08 01:34:39;;;;;;;;;23.75;20.00;;;;;;;;5055533;28;45368;-73
2022/05/08 01:37:04;;;;;;;;;29.00;18.75;;;;;;;;5058635;28;45328;-73
2022/05/08 01:39:29;;;;;;;;;22.25;16.25;;;;;;;;5056480;28;45607;-73
2022/05/08 01:41:54;;;;;;;;;18.25;15.75;;;;;;;;5058363;28;46141;-73
2022/05/08 01:44:23;;;;;;;;;20.75;19.50;;;;;;;;5056710;28;44911;-73
2022/05/08 01:46:48;;;;;;;;;26.50;22.25;;;;;;;;5058086;28;45426;-73
2022/05/08 01:49:13;;;;;;;;;25.75;23.50;;;;;;;;5056732;28;45414;-72
2022/05/08 01:51:38;;;;;;;;;25.00;19.25;;;;;;;;5057991;28;45438;-73
2022/05/08 01:54:05;;;;;;;;;25.00;20.50;;;;;;;;5056100;28;45522;-73
2022/05/08 01:56:31;;;;;;;;;23.75;22.75;;;;;;;;5058165;28;45284;-73
2022/05/08 01:58:56;;;;;;;;;21.00;20.00;;;;;;;;5051192;28;45315;-73
2022/05/08 02:01:21;;;;;;;;;28.50;26.50;;;;;;;;5057886;28;45377;-73
2022/05/08 02:03:46;;;;;;;;;29.75;22.50;;;;;;;;5054751;28;45410;-73
2022/05/08 02:06:14;;;;;;;;;24.75;23.75;;;;;;;;5058112;28;45574;-73
2022/05/08 02:08:40;;;;;;;;;26.00;25.25;;;;;;;;5056361;28;45373;-73
2022/05/08 02:11:06;;;;;;;;;25.50;24.75;;;;;;;;5057605;28;45254;-73
2022/05/08 02:13:31;;;;;;;;;34.00;31.00;;;;;;;;5055139;28;45529;-73
2022/05/08 02:15:58;;;;;;;;;29.00;25.75;;;;;;;;5058040;28;45513;-73
2022/05/08 02:18:23;;;;;;;;;28.25;24.75;;;;;;;;5056830;28;45335;-73
2022/05/08 02:20:48;;;;;;;;;26.25;24.25;;;;;;;;5055727;28;48320;-73
2022/05/08 02:23:13;;;;;;;;;37.50;30.50;;;;;;;;5058083;28;45338;-72
2022/05/08 02:25:39;;;;;;;;;24.25;24.00;;;;;;;;5056151;28;45307;-73
2022/05/08 02:28:04;;;;;;;;;23.50;23.50;;;;;;;;5056381;28;46067;-73
2022/05/08 02:30:29;;;;;;;;;27.00;21.25;;;;;;;;5083860;27;46953;-73
2022/05/08 02:32:56;;;;;;;;;30.75;28.50;;;;;;;;5055630;28;45437;-73
2022/05/08 02:35:22;;;;;;;;;26.25;23.75;;;;;;;;5056490;28;46421;-73
2022/05/08 02:37:52;;;;;;;;;33.00;29.00;;;;;;;;5057263;28;45491;-73
2022/05/08 02:40:18;;;;;;;;;27.00;25.25;;;;;;;;5055747;28;45343;-72
2022/05/08 02:42:43;;;;;;;;;35.00;31.00;;;;;;;;5057522;28;45359;-73
2022/05/08 02:45:09;;;;;;;;;36.25;30.50;;;;;;;;5085183;27;45584;-72
2022/05/08 02:47:34;;;;;;;;;31.75;29.50;;;;;;;;5060886;28;45263;-73
2022/05/08 02:49:59;;;;;;;;;33.75;30.75;;;;;;;;5059742;28;45719;-72
2022/05/08 02:52:25;;;;;;;;;29.75;26.50;;;;;;;;5060831;28;45428;-73
2022/05/08 02:54:50;;;;;;;;;32.00;28.00;;;;;;;;5059379;28;45524;-72
2022/05/08 03:00:05;;;;;;;;;37.00;32.75;;;;;;;;5059169;28;45619;-73
2022/05/08 03:02:30;;;;;;;;;37.00;32.00;;;;;;;;5059391;28;45202;-73
2022/05/08 03:04:55;;;;;;;;;40.00;32.75;;;;;;;;5057753;28;45993;-73
2022/05/08 03:07:21;;;;;;;;;36.00;33.75;;;;;;;;5060605;28;45659;-73
2022/05/08 03:09:46;;;;;;;;;44.75;35.00;;;;;;;;5053954;28;47017;-73
2022/05/08 03:12:11;;;;;;;;;42.00;35.25;;;;;;;;5060466;28;45364;-73
2022/05/08 03:14:38;;;;;;;;;40.00;35.25;;;;;;;;5059234;28;45372;-73
2022/05/08 03:17:03;;;;;;;;;41.75;34.25;;;;;;;;5060489;28;45450;-73
2022/05/08 03:19:29;;;;;;;;;43.00;36.50;;;;;;;;5058657;28;46311;-73
2022/05/08 03:21:54;;;;;;;;;45.00;38.00;;;;;;;;5060409;28;45314;-72
2022/05/08 03:24:19;;;;;;;;;41.50;35.25;;;;;;;;5057380;28;45281;-73
2022/05/08 03:26:45;;;;;;;;;43.75;36.00;;;;;;;;5060324;28;45233;-73
2022/05/08 03:29:10;;;;;;;;;39.00;34.00;;;;;;;;5058299;28;47433;-73
2022/05/08 03:31:35;;;;;;;;;47.50;37.50;;;;;;;;5060463;28;45471;-73
2022/05/08 03:34:00;;;;;;;;;45.00;36.25;;;;;;;;5058996;28;45313;-73
2022/05/08 03:36:26;;;;;;;;;47.75;38.00;;;;;;;;5060236;28;45309;-73
2022/05/08 03:38:51;;;;;;;;;49.25;39.00;;;;;;;;5058660;28;46154;-73
2022/05/08 03:41:16;;;;;;;;;45.25;38.75;;;;;;;;5059465;28;45367;-73
2022/05/08 03:43:43;;;;;;;;;50.50;39.00;;;;;;;;5059487;28;46228;-73
2022/05/08 03:46:08;;;;;;;;;46.00;37.25;;;;;;;;5059873;28;45403;-72
2022/05/08 03:48:34;;;;;;;;;48.75;37.50;;;;;;;;5058930;28;45375;-74
2022/05/08 03:51:00;;;;;;;;;48.25;39.25;;;;;;;;5059944;28;45491;-72
2022/05/08 03:53:26;;;;;;;;;59.00;41.25;;;;;;;;5058542;28;45809;-73
2022/05/08 03:55:51;;;;;;;;;44.25;38.00;;;;;;;;5059036;28;45735;-74
2022/05/08 03:58:17;;;;;;;;;50.25;40.25;;;;;;;;5059101;28;45466;-74
2022/05/08 04:00:42;;;;;;;;;47.00;35.50;;;;;;;;5058647;28;45309;-73
2022/05/08 04:03:07;;;;;;;;;48.00;41.00;;;;;;;;5059708;28;45337;-74
2022/05/08 04:05:32;;;;;;;;;51.50;41.50;;;;;;;;5056713;28;45592;-73
2022/05/08 04:07:58;;;;;;;;;50.50;41.25;;;;;;;;5059540;28;46476;-73
2022/05/08 04:10:23;;;;;;;;;48.25;39.50;;;;;;;;5056655;28;45336;-74
2022/05/08 04:12:48;;;;;;;;;53.25;42.00;;;;;;;;5059794;28;45522;-73
2022/05/08 04:18:09;;;;;;;;;50.25;39.25;;;;;;;;5034292;28;45344;-73
2022/05/08 04:20:34;;;;;;;;;47.75;40.75;;;;;;;;5057909;28;45422;-73
2022/05/08 04:25:43;;;;;;;;;57.25;41.50;;;;;;;;5058330;28;45296;-73
2022/05/08 04:28:09;;;;;;;;;53.00;43.50;;;;;;;;5057980;28;46507;-73
2022/05/08 04:30:34;;;;;;;;;55.50;42.50;;;;;;;;5086371;27;45539;-73
2022/05/08 04:33:00;;;;;;;;;49.50;40.25;;;;;;;;5059462;28;45233;-73
2022/05/08 04:35:25;;;;;;;;;53.75;44.00;;;;;;;;5057803;28;45629;-74
2022/05/08 04:37:50;;;;;;;;;56.75;42.00;;;;;;;;5059373;28;45461;-73
2022/05/08 04:40:15;;;;;;;;;54.75;43.25;;;;;;;;5057761;28;45340;-73
2022/05/08 04:42:41;;;;;;;;;52.50;41.25;;;;;;;;5057969;28;45322;-73
2022/05/08 04:45:06;;;;;;;;;49.25;38.75;;;;;;;;5057239;28;46065;-73
2022/05/08 04:47:31;;;;;;;;;59.00;45.00;;;;;;;;5057457;28;46912;-73
2022/05/08 04:49:57;;;;;;;;;54.00;41.00;;;;;;;;5073922;28;45662;-73
2022/05/08 04:52:22;;;;;;;;;56.75;45.25;;;;;;;;5059162;28;46411;-73
2022/05/08 04:54:47;;;;;;;;;56.00;44.50;;;;;;;;5057586;28;45556;-73
2022/05/08 04:57:12;;;;;;;;;54.00;41.00;;;;;;;;5058812;28;45371;-74
2022/05/08 04:59:37;;;;;;;;;57.25;43.00;;;;;;;;5055681;28;45556;-74
2022/05/08 05:02:03;;;;;;;;;56.25;44.50;;;;;;;;5053044;28;45349;-73
2022/05/08 05:04:29;;;;;;;;;56.50;43.00;;;;;;;;5047843;28;45571;-74
2022/05/08 05:06:54;;;;;;;;;55.25;42.50;;;;;;;;5058889;28;45457;-73
2022/05/08 05:09:19;;;;;;;;;49.75;42.00;;;;;;;;5057313;28;45473;-73
2022/05/08 05:11:45;;;;;;;;;50.00;40.50;;;;;;;;5053563;28;45470;-74
2022/05/08 05:14:10;;;;;;;;;53.25;45.50;;;;;;;;5057470;28;45714;-74
2022/05/08 05:16:35;;;;;;;;;55.00;43.00;;;;;;;;5058549;28;45620;-74
2022/05/08 05:19:01;;;;;;;;;50.00;40.75;;;;;;;;5057406;28;45397;-74
2022/05/08 05:21:26;;;;;;;;;51.00;41.75;;;;;;;;5058754;28;45774;-74
2022/05/08 05:23:51;;;;;;;;;49.25;40.25;;;;;;;;5056976;28;45487;-74
2022/05/08 05:26:16;;;;;;;;;46.75;38.00;;;;;;;;5058313;28;45406;-74
2022/05/08 05:28:44;;;;;;;;;56.00;41.75;;;;;;;;5057585;28;45457;-74
2022/05/08 05:31:11;;;;;;;;;53.00;42.25;;;;;;;;5058529;28;44757;-74
2022/05/08 05:33:36;;;;;;;;;48.50;39.00;;;;;;;;5057062;28;45273;-73
2022/05/08 05:36:01;;;;;;;;;55.75;45.00;;;;;;;;5057097;28;45410;-73
2022/05/08 05:38:26;;;;;;;;;60.25;43.75;;;;;;;;5057215;28;45261;-73
2022/05/08 05:40:52;;;;;;;;;53.75;42.50;;;;;;;;5050589;28;45115;-73
2022/05/08 05:43:17;;;;;;;;;49.25;40.00;;;;;;;;5057011;28;46834;-74
2022/05/08 05:45:42;;;;;;;;;54.00;43.75;;;;;;;;5056145;28;47495;-73
2022/05/08 05:48:08;;;;;;;;;53.00;42.75;;;;;;;;5058143;28;45450;-73
2022/05/08 05:50:34;;;;;;;;;49.75;41.00;;;;;;;;5079046;27;45333;-72
2022/05/08 05:52:59;;;;;;;;;54.25;44.25;;;;;;;;5057985;28;45388;-73
2022/05/08 05:55:24;;;;;;;;;59.25;45.50;;;;;;;;5050760;28;45716;-73
2022/05/08 05:57:49;;;;;;;;;58.50;45.75;;;;;;;;5058807;28;45361;-73
2022/05/08 06:00:16;;;;;;;;;55.25;43.75;;;;;;;;5052149;28;45234;-73
2022/05/08 06:02:43;;;;;;;;;54.25;42.75;;;;;;;;5058491;28;45446;-72
2022/05/08 06:05:09;;;;;;;;;57.75;43.50;;;;;;;;5050158;28;45998;-72
2022/05/08 06:07:34;;;;;;;;;52.75;42.75;;;;;;;;5051887;28;45347;-72
2022/05/08 06:10:00;;;;;;;;;54.50;45.00;;;;;;;;5051728;28;45410;-72
2022/05/08 06:12:25;;;;;;;;;51.00;43.50;;;;;;;;5056840;28;45498;-72
2022/05/08 06:14:50;;;;;;;;;54.25;43.00;;;;;;;;5052254;28;45389;-72
2022/05/08 06:17:16;;;;;;;;;50.75;40.75;;;;;;;;5053724;28;45257;-73
2022/05/08 06:19:41;;;;;;;;;52.25;42.25;;;;;;;;5057013;28;45494;-73
2022/05/08 06:22:06;;;;;;;;;45.50;37.25;;;;;;;;5049243;28;45466;-72
2022/05/08 06:24:33;;;;;;;;;53.25;41.75;;;;;;;;5050120;28;45399;-72
2022/05/08 06:26:58;;;;;;;;;54.50;42.75;;;;;;;;5060404;28;45343;-72
2022/05/08 06:29:24;;;;;;;;;53.00;43.50;;;;;;;;5059154;28;45232;-72
2022/05/08 06:31:51;;;;;;;;;47.75;39.50;;;;;;;;5061280;28;45149;-72
2022/05/08 06:34:19;;;;;;;;;50.25;40.00;;;;;;;;5059544;28;46075;-72
2022/05/08 06:36:45;;;;;;;;;49.50;40.50;;;;;;;;5053441;28;45318;-72
2022/05/08 06:39:10;;;;;;;;;51.75;42.00;;;;;;;;5057153;28;45308;-72
2022/05/08 06:41:36;;;;;;;;;48.00;37.75;;;;;;;;5059640;28;45413;-72
2022/05/08 06:44:01;;;;;;;;;55.25;43.00;;;;;;;;5058166;28;45223;-73
2022/05/08 06:46:31;;;;;;;;;50.75;42.00;;;;;;;;5055375;28;45200;-72
2022/05/08 06:48:56;;;;;;;;;50.50;41.25;;;;;;;;5058528;28;45257;-72
2022/05/08 06:51:22;;;;;;;;;50.75;41.50;;;;;;;;5057222;28;45661;-72
2022/05/08 06:53:47;;;;;;;;;53.25;42.00;;;;;;;;5054441;28;46080;-72
2022/05/08 06:56:13;;;;;;;;;51.00;40.50;;;;;;;;5068194;28;45437;-75
2022/05/08 07:01:34;;;;;;;;;49.50;39.25;;;;;;;;5056894;28;45643;-73
2022/05/08 07:01:42;;;;;;;;;44.25;36.75;;;;;;;;5057573;28;45399;-71
2022/05/08 07:04:08;;;;;;;;;49.25;40.00;;;;;;;;5058036;28;45471;-72
2022/05/08 07:06:34;;;;;;;;;51.25;41.75;;;;;;;;5060576;28;45285;-72
2022/05/08 07:08:59;;;;;;;;;50.50;40.25;;;;;;;;5057677;28;46550;-72
2022/05/08 07:11:25;;;;;;;;;44.50;38.25;;;;;;;;5056963;28;45317;-72
2022/05/08 07:13:50;;;;;;;;;49.00;38.25;;;;;;;;5058725;28;45463;-72
2022/05/08 07:16:16;;;;;;;;;48.75;41.75;;;;;;;;5053311;28;45365;-72
2022/05/08 07:18:41;;;;;;;;;47.00;38.50;;;;;;;;5059430;28;45488;-71
2022/05/08 07:21:06;;;;;;;;;56.25;42.75;;;;;;;;5058343;28;47121;-71
2022/05/08 07:23:32;;;;;;;;;54.50;42.25;;;;;;;;5059096;28;46368;-71
2022/05/08 07:25:57;;;;;;;;;48.25;38.25;;;;;;;;5071761;28;45539;-71
2022/05/08 07:28:22;;;;;;;;;51.00;41.50;;;;;;;;5059557;28;45229;-71
2022/05/08 07:30:49;;;;;;;;;55.50;41.75;;;;;;;;5056446;28;45498;-72
2022/05/08 07:33:16;;;;;;;;;47.75;39.75;;;;;;;;5058277;28;46869;-71
2022/05/08 07:38:48;;;;;;;;;45.25;35.75;;;;;;;;5012412;28;45413;-71
2022/05/08 07:41:17;;;;;;;;;39.25;30.50;;;;;;;;5051934;28;45311;-71
2022/05/08 07:43:44;;;;;;;;;47.25;38.00;;;;;;;;5058650;28;45398;-71
2022/05/08 07:46:10;;;;;;;;;47.25;39.00;;;;;;;;5055531;28;45395;-71
2022/05/08 07:48:35;;;;;;;;;48.00;39.50;;;;;;;;5057845;28;47794;-71
2022/05/08 07:51:01;;;;;;;;;52.00;41.75;;;;;;;;5055395;28;45403;-71
2022/05/08 07:53:27;;;;;;;;;47.25;37.00;;;;;;;;5057455;28;48232;-71
2022/05/08 07:55:53;;;;;;;;;44.50;38.25;;;;;;;;5054547;28;45404;-71
2022/05/08 07:58:19;;;;;;;;;48.50;37.25;;;;;;;;5060320;28;45360;-71
2022/05/08 08:00:44;;;;;;;;;50.00;40.00;;;;;;;;5053457;28;45399;-71
2022/05/08 08:03:09;;;;;;;;;48.25;38.50;;;;;;;;5059971;28;46604;-72
2022/05/08 08:05:35;;;;;;;;;45.00;36.75;;;;;;;;5052097;28;45592;-71
2022/05/08 08:08:00;;;;;;;;;48.75;41.00;;;;;;;;5058826;28;45293;-72
2022/05/08 08:10:25;;;;;;;;;53.00;41.00;;;;;;;;5052641;28;45628;-72
2022/05/08 08:12:50;;;;;;;;;49.50;38.25;;;;;;;;5059541;28;46890;-71
2022/05/08 08:15:15;;;;;;;;;48.75;40.75;;;;;;;;5054717;28;45266;-72
2022/05/08 08:17:41;;;;;;;;;51.25;38.75;;;;;;;;5056432;28;45233;-74
2022/05/08 08:20:07;;;;;;;;;53.75;41.00;;;;;;;;5057394;28;45553;-72
2022/05/08 08:22:32;;;;;;;;;47.25;39.25;;;;;;;;5059120;28;46060;-72
2022/05/08 08:24:59;;;;;;;;;50.50;40.50;;;;;;;;5051911;28;46198;-72
2022/05/08 08:27:24;;;;;;;;;48.75;38.50;;;;;;;;5058458;28;45426;-73
2022/05/08 08:29:50;;;;;;;;;47.75;39.50;;;;;;;;5052481;28;47262;-73
2022/05/08 08:32:15;;;;;;;;;47.25;37.50;;;;;;;;5054311;28;45367;-73
2022/05/08 08:34:40;;;;;;;;;45.75;38.50;;;;;;;;5055361;28;45434;-73
2022/05/08 08:37:05;;;;;;;;;48.75;39.75;;;;;;;;5053553;28;45565;-73
2022/05/08 08:39:31;;;;;;;;;43.00;35.75;;;;;;;;5052834;28;45290;-73
2022/05/08 08:42:16;;;;;;;;;47.50;40.25;;;;;;;;5059173;28;45347;-73
2022/05/08 08:47:44;;;;;;;;;51.50;41.25;;;;;;;;5058959;28;45489;-73
2022/05/08 08:50:09;;;;;;;;;46.00;36.75;;;;;;;;5052430;28;45281;-72
2022/05/08 08:52:36;;;;;;;;;53.75;43.00;;;;;;;;5059009;28;46067;-73
2022/05/08 08:55:01;;;;;;;;;51.00;41.00;;;;;;;;5049218;28;45173;-73
2022/05/08 08:57:26;;;;;;;;;48.00;38.00;;;;;;;;5059163;28;45295;-73
2022/05/08 08:59:51;;;;;;;;;51.00;39.75;;;;;;;;5056079;28;45485;-72
2022/05/08 09:02:18;;;;;;;;;50.50;39.25;;;;;;;;5057210;28;46740;-73
2022/05/08 09:04:49;;;;;;;;;49.25;37.50;;;;;;;;5080264;27;45389;-71
2022/05/08 09:07:33;;;;;;;;;56.75;45.00;;;;;;;;5058561;28;45304;-70
2022/05/08 09:10:16;;;;;;;;;49.50;39.00;;;;;;;;5053600;28;45595;-70
2022/05/08 09:12:53;;;;;;;;;56.00;44.00;;;;;;;;5058477;28;45534;-70
2022/05/08 09:15:19;;;;;;;;;51.00;41.25;;;;;;;;5054461;28;45296;-70
2022/05/08 09:17:44;;;;;;;;;55.50;44.00;;;;;;;;5045853;28;45281;-70
2022/05/08 09:20:43;;;;;;;;;55.25;44.25;;;;;;;;5052088;28;45175;-70
2022/05/08 09:23:10;;;;;;;;;54.75;44.00;;;;;;;;5023441;28;45439;-69
2022/05/08 09:25:43;;;;;;;;;53.50;42.25;;;;;;;;5056742;28;45307;-70
2022/05/08 09:28:09;;;;;;;;;58.25;47.75;;;;;;;;5058394;28;45473;-70
2022/05/08 09:30:34;;;;;;;;;56.50;44.75;;;;;;;;5055216;28;46228;-69
2022/05/08 09:32:59;;;;;;;;;73.25;60.00;;;;;;;;5058294;28;45397;-70
2022/05/08 09:35:25;;;;;;;;;58.75;46.00;;;;;;;;5049296;28;45282;-71
2022/05/08 09:37:51;;;;;;;;;50.00;40.00;;;;;;;;5058847;28;45284;-71
2022/05/08 09:40:17;;;;;;;;;61.50;45.75;;;;;;;;5047990;28;45804;-71
2022/05/08 09:42:42;;;;;;;;;54.50;42.75;;;;;;;;5058625;28;45980;-71
2022/05/08 09:45:08;;;;;;;;;48.25;39.50;;;;;;;;5051833;28;45204;-72
2022/05/08 09:47:41;;;;;;;;;50.25;38.25;;;;;;;;5058697;28;45292;-72
2022/05/08 09:50:07;;;;;;;;;47.25;38.00;;;;;;;;5047133;28;46015;-71
2022/05/08 09:52:33;;;;;;;;;49.25;38.00;;;;;;;;5056134;28;45945;-71
2022/05/08 09:55:01;;;;;;;;;52.00;39.75;;;;;;;;5054576;28;45470;-71
2022/05/08 09:57:26;;;;;;;;;49.50;40.00;;;;;;;;5060897;28;45367;-72
2022/05/08 09:59:51;;;;;;;;;48.00;37.00;;;;;;;;5055588;28;45534;-71
2022/05/08 10:02:16;;;;;;;;;49.00;38.00;;;;;;;;5061388;28;47127;-71
2022/05/08 10:04:42;;;;;;;;;46.75;37.75;;;;;;;;5054995;28;45569;-71
2022/05/08 10:07:07;;;;;;;;;53.50;40.00;;;;;;;;5062019;28;45358;-71
2022/05/08 10:15:33;;;;;;;;;50.00;41.50;;;;;;;;5056764;28;44733;-71
2022/05/08 10:18:17;;;;;;;;;47.25;39.50;;;;;;;;5059166;28;45212;-71
2022/05/08 10:21:03;;;;;;;;;49.50;41.00;;;;;;;;5053215;28;45672;-71
2022/05/08 10:23:35;;;;;;;;;58.00;47.00;;;;;;;;5048659;28;48516;-71
2022/05/08 10:26:19;;;;;;;;;55.75;42.50;;;;;;;;5059371;28;45413;-71
2022/05/08 10:29:03;;;;;;;;;58.50;47.25;;;;;;;;5058842;28;45307;-71
2022/05/08 10:31:42;;;;;;;;;53.50;43.25;;;;;;;;5057972;28;45256;-72
2022/05/08 10:34:07;;;;;;;;;56.25;43.75;;;;;;;;5059164;28;46031;-72
2022/05/08 10:36:33;;;;;;;;;52.25;43.50;;;;;;;;5054058;28;45450;-71
2022/05/08 10:39:17;;;;;;;;;53.00;41.75;;;;;;;;5062754;28;45307;-71
2022/05/08 10:41:42;;;;;;;;;52.00;40.33;;;;;;;;5060118;28;45543;-72
2022/05/08 10:44:28;;;;;;;;;43.33;36.33;;;;;;;;5057115;28;45341;-71
2022/05/08 10:47:13;;;;;;;;;55.00;40.67;;;;;;;;5055588;28;45451;-72
2022/05/08 10:49:38;;;;;;;;;52.00;43.00;;;;;;;;5054287;28;45958;-73
2022/05/08 10:52:07;;;;;;;;;54.25;43.25;;;;;;;;5068867;28;46118;-73
2022/05/08 10:54:33;;;;;;;;;49.67;39.00;;;;;;;;5054598;28;45445;-73
2022/05/08 10:56:58;;;;;;;;;51.67;39.00;;;;;;;;5059867;28;45398;-72
2022/05/08 10:59:43;;;;;;;;;47.33;38.33;;;;;;;;5055049;28;45181;-71
2022/05/08 11:02:08;;;;;;;;;46.67;39.33;;;;;;;;5047871;28;45309;-71
2022/05/08 11:04:49;;;;;;;;;46.67;37.00;;;;;;;;5051061;28;45889;-73
2022/05/08 11:07:20;;;;;;;;;44.33;35.67;;;;;;;;5060950;28;45290;-73
2022/05/08 11:09:46;;;;;;;;;44.33;35.00;;;;;;;;5054875;28;45505;-73
2022/05/08 11:12:11;;;;;;;;;52.00;41.00;;;;;;;;5057064;28;45268;-73
2022/05/08 11:14:36;;;;;;;;;44.33;34.67;;;;;;;;5055634;28;47025;-71
2022/05/08 11:17:12;;;;;;;;;41.67;36.00;;;;;;;;5058123;28;45161;-73
2022/05/08 11:19:53;;;;;;;;;45.67;37.33;;;;;;;;5057240;28;45599;-73
2022/05/08 11:22:18;;;;;;;;;36.00;33.67;;;;;;;;5058932;28;45613;-73
2022/05/08 11:24:47;;;;;;;;;38.67;33.33;;;;;;;;5057874;28;45295;-73
2022/05/08 11:27:13;;;;;;;;;39.00;32.00;;;;;;;;5060549;28;45405;-73
2022/05/08 11:29:38;;;;;;;;;42.67;35.67;;;;;;;;5057109;28;45425;-71
2022/05/08 11:38:00;;;;;;;;;41.67;33.33;;;;;;;;5048934;28;45382;-75
2022/05/08 11:40:26;;;;;;;;;33.33;31.00;;;;;;;;5051617;28;45486;-73
2022/05/08 11:42:52;;;;;;;;;42.33;34.00;;;;;;;;5060343;28;45273;-75
2022/05/08 11:45:17;;;;;;;;;42.00;36.33;;;;;;;;5053415;28;46034;-74
2022/05/08 11:47:48;;;;;;;;;37.67;32.67;;;;;;;;5060192;28;45366;-75
2022/05/08 11:50:14;;;;;;;;;40.00;35.33;;;;;;;;5053572;28;45264;-74
2022/05/08 11:52:39;;;;;;;;;39.67;34.67;;;;;;;;5058556;28;46286;-74
2022/05/08 11:55:04;;;;;;;;;39.33;33.33;;;;;;;;5053103;28;46124;-74
2022/05/08 11:57:39;;;;;;;;;30.00;29.00;;;;;;;;5060025;28;45280;-74
2022/05/08 12:00:06;;;;;;;;;37.67;32.67;;;;;;;;5054314;28;45284;-75
2022/05/08 12:02:38;;;;;;;;;32.33;30.67;;;;;;;;5059331;28;45354;-73
2022/05/08 12:05:04;;;;;;;;;39.00;34.00;;;;;;;;5053434;28;45356;-74
2022/05/08 12:07:40;;;;;;;;;37.33;30.33;;;;;;;;5058612;28;45690;-76
2022/05/08 12:10:05;;;;;;;;;43.67;36.00;;;;;;;;5054109;28;46160;-73
2022/05/08 12:12:32;;;;;;;;;38.67;30.33;;;;;;;;5055981;28;45227;-74
2022/05/08 12:15:03;;;;;;;;;36.00;31.33;;;;;;;;5054736;28;45545;-73
2022/05/08 12:17:49;;;;;;;;;36.33;33.00;;;;;;;;5055805;28;45329;-73
2022/05/08 12:20:18;;;;;;;;;33.00;30.67;;;;;;;;5048643;27;45413;-74
2022/05/08 12:22:44;;;;;;;;;36.67;32.67;;;;;;;;5057771;28;45541;-73
2022/05/08 12:25:10;;;;;;;;;35.67;32.00;;;;;;;;5055758;28;45375;-73
2022/05/08 12:27:36;;;;;;;;;36.33;28.33;;;;;;;;5058653;28;45237;-74
2022/05/08 12:30:02;;;;;;;;;32.33;30.67;;;;;;;;5053341;28;45505;-73
2022/05/08 12:32:27;;;;;;;;;38.00;32.00;;;;;;;;5070304;28;47016;-73
2022/05/08 12:34:53;;;;;;;;;32.67;29.67;;;;;;;;5054181;28;45386;-75
2022/05/08 12:37:19;;;;;;;;;35.00;30.33;;;;;;;;5055664;28;45312;-74
2022/05/08 12:39:45;;;;;;;;;33.00;30.00;;;;;;;;5053843;28;44899;-75
2022/05/08 12:42:11;;;;;;;;;32.00;30.67;;;;;;;;5059706;28;45348;-74
2022/05/08 12:44:39;;;;;;;;;32.33;30.33;;;;;;;;5050787;28;47412;-74
2022/05/08 12:47:09;;;;;;;;;25.75;24.25;;;;;;;;5059254;28;45601;-74
2022/05/08 12:49:35;;;;;;;;;32.25;29.00;;;;;;;;5053059;28;45340;-74
2022/05/08 12:52:00;;;;;;;;;27.00;24.50;;;;;;;;5059325;28;45407;-74
2022/05/08 12:54:26;;;;;;;;;28.50;25.50;;;;;;;;5052022;28;46207;-75
2022/05/08 12:56:51;;;;;;;;;30.50;28.25;;;;;;;;5058664;28;45271;-75
2022/05/08 13:02:00;;;;;;;;;24.00;21.75;;;;;;;;5058690;28;45342;-75
2022/05/08 13:04:26;;;;;;;;;28.75;28.25;;;;;;;;5052969;28;45323;-74
2022/05/08 13:06:51;;;;;;;;;24.25;24.25;;;;;;;;5057067;28;45302;-74
2022/05/08 13:09:17;;;;;;;;;26.25;21.50;;;;;;;;5052515;28;45591;-74
2022/05/08 13:11:42;;;;;;;;;23.50;20.25;;;;;;;;5056596;28;46297;-74
2022/05/08 13:14:08;;;;;;;;;21.50;21.00;;;;;;;;5055987;28;46216;-74
2022/05/08 13:16:33;;;;;;;;;23.50;23.50;;;;;;;;5055199;28;45368;-75
2022/05/08 13:18:58;;;;;;;;;22.50;22.00;;;;;;;;5056770;28;45460;-75
2022/05/08 13:21:25;;;;;;;;;22.25;19.75;;;;;;;;5055959;28;45490;-74
2022/05/08 13:23:50;;;;;;;;;23.75;23.75;;;;;;;;5056954;28;46314;-74
2022/05/08 13:26:15;;;;;;;;;20.50;18.25;;;;;;;;5057324;28;45605;-76
2022/05/08 13:28:41;;;;;;;;;20.25;20.25;;;;;;;;5056794;28;45366;-75
2022/05/08 13:31:06;;;;;;;;;26.00;22.25;;;;;;;;5044580;28;46134;-76
2022/05/08 13:33:32;;;;;;;;;17.00;16.25;;;;;;;;5056734;28;47122;-75
2022/05/08 13:35:57;;;;;;;;;14.75;14.00;;;;;;;;5050294;28;45339;-74
2022/05/08 13:38:26;;;;;;;;;15.00;14.50;;;;;;;;5058829;28;45318;-73
2022/05/08 13:40:52;;;;;;;;;15.25;15.25;;;;;;;;5049622;28;45197;-74
2022/05/08 13:43:17;;;;;;;;;19.25;17.25;;;;;;;;5058590;28;46363;-74
2022/05/08 13:45:43;;;;;;;;;14.75;14.25;;;;;;;;5049304;28;45322;-74
2022/05/08 13:48:09;;;;;;;;;20.25;16.25;;;;;;;;5056731;28;45355;-73
2022/05/08 13:50:34;;;;;;;;;15.75;15.50;;;;;;;;5051568;28;45993;-73
2022/05/08 13:53:00;;;;;;;;;13.75;12.75;;;;;;;;5058232;28;45469;-74
2022/05/08 13:55:25;;;;;;;;;15.00;14.00;;;;;;;;5052070;28;45294;-74
2022/05/08 13:57:54;;;;;;;;;20.75;15.00;;;;;;;;5058273;28;45462;-74
2022/05/08 14:00:21;;;;;;;;;13.50;12.75;;;;;;;;5049799;28;45287;-74
2022/05/08 14:02:46;;;;;;;;;18.00;16.20;;;;;;;;5056578;28;46063;-73
2022/05/08 14:05:11;;;;;;;;;18.75;17.75;;;;;;;;5050286;28;45297;-74
2022/05/08 14:07:37;;;;;;;;;15.75;15.75;;;;;;;;5053716;28;45273;-73
2022/05/08 14:10:04;;;;;;;;;13.25;11.75;;;;;;;;5052213;28;45236;-73
2022/05/08 14:12:29;;;;;;;;;15.60;14.80;;;;;;;;5042256;28;46277;-73
2022/05/08 14:14:54;;;;;;;;;11.25;11.25;;;;;;;;5045698;28;45477;-73
2022/05/08 14:17:19;;;;;;;;;13.75;11.00;;;;;;;;5055458;28;45368;-72
2022/05/08 14:19:45;;;;;;;;;13.25;12.00;;;;;;;;5054816;28;45313;-73
2022/05/08 14:22:10;;;;;;;;;12.25;10.00;;;;;;;;5057047;28;45895;-73
2022/05/08 14:24:35;;;;;;;;;13.50;11.25;;;;;;;;5055721;28;45740;-73
2022/05/08 14:27:01;;;;;;;;;9.00;9.00;;;;;;;;5065390;28;45442;-73
2022/05/08 14:29:26;;;;;;;;;13.00;10.50;;;;;;;;5056126;28;45783;-73
2022/05/08 14:37:19;;;;;;;;;13.50;13.25;;;;;;;;5053656;28;45769;-73
2022/05/08 14:39:45;;;;;;;;;15.00;13.50;;;;;;;;5056245;28;45623;-73
2022/05/08 14:42:10;;;;;;;;;17.00;14.00;;;;;;;;5058328;28;47152;-73
2022/05/08 14:44:36;;;;;;;;;12.50;11.25;;;;;;;;5059519;28;45502;-73
2022/05/08 14:47:01;;;;;;;;;11.75;10.25;;;;;;;;5061033;28;45668;-73
2022/05/08 14:49:26;;;;;;;;;10.00;8.50;;;;;;;;5055508;28;45288;-73